createdAt,value
2022-12-23T00:00:30.877Z,1.99
2022-12-23T00:03:19.163Z,1.99
2022-12-23T00:05:47.336Z,2.00
2022-12-23T00:08:15.535Z,2.00
2022-12-23T00:10:43.867Z,1.99
2022-12-23T00:13:30.564Z,1.99
2022-12-23T00:16:05.034Z,1.99
2022-12-23T00:18:33.824Z,1.99
2022-12-23T00:21:15.260Z,2.00
2022-12-23T00:23:47.389Z,2.00
2022-12-23T00:26:27.285Z,2.01
2022-12-23T00:28:57.849Z,2.00
2022-12-23T00:31:26.618Z,1.99
2022-12-23T00:33:54.917Z,1.99
2022-12-23T00:36:30.671Z,2.00
2022-12-23T00:39:18.440Z,2.00
2022-12-23T00:42:04.994Z,2.00
2022-12-23T00:44:33.285Z,2.01
2022-12-23T00:47:01.516Z,2.00
2022-12-23T00:49:41.980Z,2.00
2022-12-23T00:52:15.695Z,2.01
2022-12-23T00:54:44.030Z,2.01
2022-12-23T00:57:12.218Z,2.01
2022-12-23T00:59:40.477Z,2.01
2022-12-23T01:05:29.242Z,2.00
2022-12-23T01:07:57.388Z,2.00
2022-12-23T01:10:25.499Z,1.99
2022-12-23T01:12:53.634Z,1.98
2022-12-23T01:15:21.870Z,1.96
2022-12-23T01:17:49.930Z,1.95
2022-12-23T01:20:18.133Z,1.95
2022-12-23T01:22:46.259Z,1.94
2022-12-23T01:25:14.369Z,1.94
2022-12-23T01:27:42.550Z,1.93
2022-12-23T01:30:10.999Z,1.92
2022-12-23T01:32:39.151Z,1.91
2022-12-23T01:35:07.613Z,1.91
2022-12-23T01:37:35.788Z,1.90
2022-12-23T01:40:04.423Z,1.89
2022-12-23T01:42:45.002Z,1.89
2022-12-23T01:45:29.391Z,1.87
2022-12-23T01:48:22.702Z,1.86
2022-12-23T01:51:05.148Z,1.84
2022-12-23T01:53:49.043Z,1.83
2022-12-23T01:56:30.272Z,1.82
2022-12-23T01:59:03.628Z,1.82
2022-12-23T02:01:50.561Z,1.82
2022-12-23T02:04:24.609Z,1.82
2022-12-23T02:07:11.154Z,1.82
2022-12-23T02:09:40.644Z,1.80
2022-12-23T02:12:41.847Z,1.80
2022-12-23T02:15:51.289Z,1.79
2022-12-23T02:18:51.443Z,1.78
2022-12-23T02:21:47.716Z,1.78
2022-12-23T02:25:07.032Z,1.77
2022-12-23T02:28:31.495Z,1.75
2022-12-23T02:31:09.743Z,1.74
2022-12-23T02:33:37.810Z,1.72
2022-12-23T02:36:16.998Z,1.72
2022-12-23T02:39:06.943Z,1.71
2022-12-23T02:41:57.730Z,1.69
2022-12-23T02:44:40.087Z,1.68
2022-12-23T02:47:17.184Z,1.66
2022-12-23T02:49:57.145Z,1.65
2022-12-23T02:52:31.873Z,1.64
2022-12-23T02:55:16.183Z,1.63
2022-12-23T02:57:49.032Z,1.62
2022-12-23T03:00:18.878Z,1.61
2022-12-23T03:02:47.689Z,1.61
2022-12-23T03:05:46.376Z,1.59
2022-12-23T03:08:30.038Z,1.57
2022-12-23T03:11:18.540Z,1.55
2022-12-23T03:14:04.947Z,1.53
2022-12-23T03:17:01.959Z,1.50
2022-12-23T03:19:32.439Z,1.48
2022-12-23T03:22:38.138Z,1.44
2022-12-23T03:25:23.176Z,1.41
2022-12-23T03:28:08.936Z,1.38
2022-12-23T03:30:40.755Z,1.35
2022-12-23T03:33:40.059Z,1.31
2022-12-23T03:36:15.761Z,1.28
2022-12-23T03:38:45.944Z,1.23
2022-12-23T03:41:21.813Z,1.19
2022-12-23T03:43:57.647Z,1.14
2022-12-23T03:46:40.247Z,1.11
2022-12-23T03:49:35.281Z,1.09
2022-12-23T03:52:11.756Z,1.06
2022-12-23T03:54:54.753Z,1.04
2022-12-23T03:57:30.497Z,1.05
2022-12-23T03:59:58.691Z,1.18
2022-12-23T04:02:34.084Z,1.28
2022-12-23T04:05:25.348Z,1.36
2022-12-23T04:08:00.345Z,1.42
2022-12-23T04:10:28.967Z,1.47
2022-12-23T04:12:57.541Z,1.53
2022-12-23T04:15:28.069Z,1.62
2022-12-23T04:17:58.077Z,1.68
2022-12-23T04:20:26.291Z,1.73
2022-12-23T04:22:54.475Z,1.77
2022-12-23T04:25:22.658Z,1.82
2022-12-23T04:27:50.858Z,1.91
2022-12-23T04:30:19.166Z,1.97
2022-12-23T04:32:47.357Z,2.01
2022-12-23T04:35:15.646Z,2.03
2022-12-23T04:37:43.782Z,2.05
2022-12-23T04:40:12.275Z,2.10
2022-12-23T04:42:40.576Z,2.12
2022-12-23T04:45:09.768Z,2.15
2022-12-23T04:47:37.925Z,2.18
2022-12-23T04:50:07.591Z,2.23
2022-12-23T04:52:35.723Z,2.29
2022-12-23T04:55:04.119Z,2.33
2022-12-23T04:57:32.256Z,2.33
2022-12-23T05:00:00.360Z,2.36
2022-12-23T05:02:28.730Z,2.38
2022-12-23T05:04:56.995Z,2.40
2022-12-23T05:07:25.359Z,2.42
2022-12-23T05:09:53.544Z,2.42
2022-12-23T05:12:21.822Z,2.43
2022-12-23T05:14:49.964Z,2.46
2022-12-23T05:17:18.074Z,2.46
2022-12-23T05:19:46.138Z,2.44
2022-12-23T05:22:14.316Z,2.41
2022-12-23T05:24:42.399Z,2.39
2022-12-23T05:27:10.532Z,2.41
2022-12-23T05:29:38.800Z,2.45
2022-12-23T05:32:07.065Z,2.44
2022-12-23T05:34:35.276Z,2.43
2022-12-23T05:37:03.412Z,2.47
2022-12-23T05:39:31.575Z,2.48
2022-12-23T05:41:59.683Z,2.53
2022-12-23T05:44:27.836Z,2.56
2022-12-23T05:46:55.959Z,2.57
2022-12-23T05:49:25.473Z,2.55
2022-12-23T05:51:53.606Z,2.53
2022-12-23T05:54:21.730Z,2.51
2022-12-23T05:56:49.864Z,2.50
2022-12-23T05:59:18.062Z,2.49
2022-12-23T06:01:46.240Z,2.49
2022-12-23T06:04:14.588Z,2.49
2022-12-23T06:06:42.721Z,2.48
2022-12-23T06:09:10.936Z,2.48
2022-12-23T06:11:39.061Z,2.48
2022-12-23T06:14:07.620Z,2.49
2022-12-23T06:16:35.930Z,2.53
2022-12-23T06:19:04.226Z,2.57
2022-12-23T06:21:32.394Z,2.58
2022-12-23T06:24:00.655Z,2.56
2022-12-23T06:26:28.861Z,2.55
2022-12-23T06:28:56.957Z,2.55
2022-12-23T06:31:25.156Z,2.55
2022-12-23T06:33:53.331Z,2.56
2022-12-23T06:36:21.514Z,2.54
2022-12-23T06:38:49.887Z,2.53
2022-12-23T06:41:18.584Z,2.54
2022-12-23T06:43:49.945Z,2.56
2022-12-23T06:46:22.273Z,2.56
2022-12-23T06:48:50.493Z,2.57
2022-12-23T06:51:19.053Z,2.58
2022-12-23T06:53:47.423Z,2.59
2022-12-23T06:56:15.579Z,2.55
2022-12-23T06:58:43.670Z,2.51
2022-12-23T07:01:12.104Z,2.45
2022-12-23T07:03:40.437Z,2.45
2022-12-23T07:06:08.681Z,2.46
2022-12-23T07:08:36.863Z,2.43
2022-12-23T07:11:05.882Z,2.41
2022-12-23T07:13:34.823Z,2.42
2022-12-23T07:16:09.642Z,2.43
2022-12-23T07:18:37.848Z,2.42
2022-12-23T07:21:09.122Z,2.44
2022-12-23T07:23:43.840Z,2.47
2022-12-23T07:26:11.956Z,2.50
2022-12-23T07:28:40.060Z,2.52
2022-12-23T07:31:08.225Z,2.54
2022-12-23T07:33:36.344Z,2.53
2022-12-23T07:36:04.933Z,2.52
2022-12-23T07:38:33.028Z,2.51
2022-12-23T07:41:01.128Z,2.50
2022-12-23T07:43:29.285Z,2.49
2022-12-23T07:46:00.311Z,2.47
2022-12-23T07:48:29.033Z,2.42
2022-12-23T07:51:04.082Z,2.38
2022-12-23T07:53:32.198Z,2.33
2022-12-23T07:56:00.332Z,2.27
2022-12-23T07:58:28.581Z,2.22
2022-12-23T08:01:10.213Z,2.18
2022-12-23T08:03:38.457Z,2.16
2022-12-23T08:06:12.667Z,2.14
2022-12-23T08:08:43.375Z,2.12
2022-12-23T08:11:13.606Z,2.11
2022-12-23T08:13:44.355Z,2.11
2022-12-23T08:16:12.963Z,2.11
2022-12-23T08:18:42.397Z,2.10
2022-12-23T08:21:15.662Z,2.11
2022-12-23T08:23:44.253Z,2.10
2022-12-23T08:26:21.665Z,2.10
2022-12-23T08:28:53.550Z,2.09
2022-12-23T08:31:28.951Z,2.09
2022-12-23T08:33:58.725Z,2.10
2022-12-23T08:36:31.816Z,2.09
2022-12-23T08:39:06.218Z,2.11
2022-12-23T08:41:40.283Z,2.16
2022-12-23T08:44:09.968Z,2.24
2022-12-23T08:46:38.255Z,2.34
2022-12-23T08:49:07.897Z,2.45
2022-12-23T08:51:38.052Z,2.56
2022-12-23T08:54:06.835Z,2.67
2022-12-23T08:56:40.570Z,2.79
2022-12-23T08:59:19.047Z,2.90
2022-12-23T09:01:48.453Z,2.99
2022-12-23T09:04:17.074Z,3.06
2022-12-23T09:06:45.696Z,3.12
2022-12-23T09:09:15.856Z,3.18
2022-12-23T09:11:44.212Z,3.22
2022-12-23T09:14:14.258Z,3.26
2022-12-23T09:16:42.393Z,3.29
2022-12-23T09:19:10.549Z,3.34
2022-12-23T09:21:38.675Z,3.38
2022-12-23T09:24:07.000Z,3.40
2022-12-23T09:26:35.388Z,3.42
2022-12-23T09:29:03.641Z,3.43
2022-12-23T09:31:36.513Z,3.45
2022-12-23T09:34:06.418Z,3.45
2022-12-23T09:36:34.567Z,3.47
2022-12-23T09:39:03.475Z,3.48
2022-12-23T09:41:48.631Z,3.51
2022-12-23T09:44:44.341Z,3.52
2022-12-23T09:47:19.249Z,3.53
2022-12-23T09:49:55.440Z,3.55
2022-12-23T09:52:54.919Z,3.58
2022-12-23T09:55:32.157Z,3.60
2022-12-23T09:58:36.562Z,3.62
2022-12-23T10:01:24.697Z,3.66
2022-12-23T10:04:27.213Z,3.66
2022-12-23T10:07:04.479Z,3.67
2022-12-23T10:09:41.302Z,3.67
2022-12-23T10:12:39.109Z,3.69
2022-12-23T10:15:42.112Z,3.71
2022-12-23T10:18:53.650Z,3.72
2022-12-23T10:21:36.429Z,3.72
2022-12-23T10:24:22.781Z,3.74
2022-12-23T10:27:13.599Z,3.74
2022-12-23T10:29:42.526Z,3.75
2022-12-23T10:32:43.869Z,3.75
2022-12-23T10:35:38.816Z,3.77
2022-12-23T10:38:35.419Z,3.77
2022-12-23T10:41:35.664Z,3.78
2022-12-23T10:44:47.280Z,3.80
2022-12-23T10:47:42.554Z,3.81
2022-12-23T10:50:47.551Z,3.85
2022-12-23T10:53:54.185Z,3.85
2022-12-23T10:56:23.316Z,3.85
2022-12-23T10:58:56.691Z,3.85
2022-12-23T11:01:27.300Z,3.86
2022-12-23T11:04:19.861Z,3.87
2022-12-23T11:07:10.818Z,3.89
2022-12-23T11:09:45.824Z,3.90
2022-12-23T11:12:15.036Z,3.92
2022-12-23T11:14:57.910Z,3.94
2022-12-23T11:17:29.939Z,3.97
2022-12-23T11:20:10.266Z,4.01
2022-12-23T11:22:58.246Z,4.04
2022-12-23T11:25:40.788Z,4.07
2022-12-23T11:28:22.275Z,4.09
2022-12-23T11:30:56.637Z,4.12
2022-12-23T11:33:31.369Z,4.13
2022-12-23T11:36:12.270Z,4.15
2022-12-23T11:39:13.912Z,4.18
2022-12-23T11:41:47.854Z,4.20
2022-12-23T11:44:31.882Z,4.21
2022-12-23T11:47:23.012Z,4.22
2022-12-23T11:49:54.990Z,4.24
2022-12-23T11:52:31.296Z,4.25
2022-12-23T11:55:02.516Z,4.28
2022-12-23T11:57:33.372Z,4.29
2022-12-23T12:00:04.892Z,4.29
2022-12-23T12:02:41.940Z,4.30
2022-12-23T12:05:51.694Z,4.31
2022-12-23T12:08:24.980Z,4.31
2022-12-23T12:11:00.855Z,4.33
2022-12-23T12:13:42.421Z,4.34
2022-12-23T12:16:47.610Z,4.34
2022-12-23T12:19:25.031Z,4.34
2022-12-23T12:22:00.774Z,4.35
2022-12-23T12:24:40.415Z,4.37
2022-12-23T12:27:11.947Z,4.38
2022-12-23T12:30:04.542Z,4.39
2022-12-23T12:33:00.888Z,4.38
2022-12-23T12:35:44.236Z,4.39
2022-12-23T12:38:30.177Z,4.39
2022-12-23T12:41:07.374Z,4.39
2022-12-23T12:43:46.599Z,4.40
2022-12-23T12:47:15.993Z,4.49
2022-12-23T12:50:06.416Z,4.66
2022-12-23T12:52:40.721Z,4.74
2022-12-23T12:55:29.283Z,4.81
2022-12-23T12:57:57.713Z,4.89
2022-12-23T13:00:25.972Z,4.94
2022-12-23T13:03:28.923Z,4.99
2022-12-23T13:06:00.583Z,5.05
2022-12-23T13:09:02.106Z,5.09
2022-12-23T13:11:56.158Z,5.16
2022-12-23T13:14:54.294Z,5.21
2022-12-23T13:17:35.148Z,5.25
2022-12-23T13:20:24.093Z,5.27
2022-12-23T13:23:20.839Z,5.31
2022-12-23T13:26:05.451Z,5.34
2022-12-23T13:29:08.341Z,5.36
2022-12-23T13:32:28.360Z,5.39
2022-12-23T13:35:33.655Z,5.41
2022-12-23T13:38:38.656Z,5.40
2022-12-23T13:41:36.960Z,5.39
2022-12-23T13:44:09.622Z,5.40
2022-12-23T13:46:52.349Z,5.40
2022-12-23T13:49:58.561Z,5.39
2022-12-23T13:52:34.067Z,5.41
2022-12-23T13:55:57.871Z,5.42
2022-12-23T13:58:31.301Z,5.40
2022-12-23T14:01:08.669Z,5.39
2022-12-23T14:03:39.101Z,5.41
2022-12-23T14:06:39.481Z,5.41
2022-12-23T14:09:08.027Z,5.41
2022-12-23T14:11:36.762Z,5.40
2022-12-23T14:14:17.365Z,5.39
2022-12-23T14:17:10.303Z,5.37
2022-12-23T14:20:18.008Z,5.38
2022-12-23T14:23:33.403Z,5.37
2022-12-23T14:26:32.119Z,5.36
2022-12-23T14:29:09.170Z,5.36
2022-12-23T14:31:44.701Z,5.37
2022-12-23T14:34:18.831Z,5.35
2022-12-23T14:37:30.012Z,5.33
2022-12-23T14:39:59.513Z,5.32
2022-12-23T14:42:45.938Z,5.30
2022-12-23T14:45:42.361Z,5.23
2022-12-23T14:48:44.671Z,5.17
2022-12-23T14:51:25.401Z,5.14
2022-12-23T14:53:59.434Z,5.09
2022-12-23T14:56:39.516Z,5.04
2022-12-23T14:59:07.586Z,4.99
2022-12-23T15:01:48.214Z,4.95
2022-12-23T15:04:21.673Z,4.92
2022-12-23T15:06:53.448Z,4.90
2022-12-23T15:09:37.420Z,4.86
2022-12-23T15:12:14.835Z,4.81
2022-12-23T15:14:57.700Z,4.82
2022-12-23T15:17:36.269Z,4.79
2022-12-23T15:20:11.093Z,4.74
2022-12-23T15:22:42.617Z,4.66
2022-12-23T15:25:33.682Z,4.61
2022-12-23T15:28:03.608Z,4.54
2022-12-23T15:30:45.239Z,4.49
2022-12-23T15:34:02.181Z,4.41
2022-12-23T15:36:10.489Z,4.32
2022-12-23T15:38:39.693Z,4.26
2022-12-23T15:41:17.278Z,4.19
2022-12-23T15:43:46.434Z,4.12
2022-12-23T15:46:29.157Z,4.07
2022-12-23T15:48:58.485Z,4.00
2022-12-23T15:52:07.108Z,3.92
2022-12-23T15:54:34.796Z,3.86
2022-12-23T15:57:04.209Z,3.82
2022-12-23T15:59:38.852Z,3.77
2022-12-23T16:02:59.786Z,3.72
2022-12-23T16:05:33.030Z,3.67
2022-12-23T16:08:16.543Z,3.60
2022-12-23T16:11:18.376Z,3.52
2022-12-23T16:14:00.200Z,3.46
2022-12-23T16:16:42.701Z,3.41
2022-12-23T16:19:44.656Z,3.34
2022-12-23T16:22:38.047Z,3.24
2022-12-23T16:25:14.997Z,3.16
2022-12-23T16:27:46.493Z,3.10
2022-12-23T16:30:22.290Z,3.03
2022-12-23T16:32:56.273Z,2.94
2022-12-23T16:35:31.595Z,2.88
2022-12-23T16:38:10.325Z,2.82
2022-12-23T16:40:38.822Z,2.78
2022-12-23T16:43:07.282Z,2.72
2022-12-23T16:45:37.284Z,2.68
2022-12-23T16:48:21.026Z,2.63
2022-12-23T16:50:50.020Z,2.59
2022-12-23T16:53:18.260Z,2.56
2022-12-23T16:55:53.858Z,2.54
2022-12-23T16:58:26.772Z,2.54
2022-12-23T17:00:55.655Z,2.53
2022-12-23T17:03:23.878Z,2.54
2022-12-23T17:05:52.006Z,2.53
2022-12-23T17:08:21.010Z,2.54
2022-12-23T17:10:50.275Z,2.55
2022-12-23T17:13:18.878Z,2.56
2022-12-23T17:15:47.011Z,2.57
2022-12-23T17:18:18.456Z,2.57
2022-12-23T17:20:48.879Z,2.56
2022-12-23T17:23:31.244Z,2.55
2022-12-23T17:25:59.358Z,2.51
2022-12-23T17:28:32.544Z,2.47
2022-12-23T17:31:00.960Z,2.42
2022-12-23T17:33:32.202Z,2.36
2022-12-23T17:36:01.120Z,2.32
2022-12-23T17:38:30.061Z,2.30
2022-12-23T17:40:58.684Z,2.28
2022-12-23T17:43:27.379Z,2.26
2022-12-23T17:45:55.575Z,2.25
2022-12-23T17:48:29.551Z,2.25
2022-12-23T17:50:59.805Z,2.25
2022-12-23T17:53:27.890Z,2.26
2022-12-23T17:55:56.039Z,2.28
2022-12-23T17:58:24.179Z,2.29
2022-12-23T18:00:52.459Z,2.31
2022-12-23T18:03:23.829Z,2.32
2022-12-23T18:05:59.361Z,2.35
2022-12-23T18:08:29.699Z,2.37
2022-12-23T18:10:58.510Z,2.40
2022-12-23T18:13:26.680Z,2.42
2022-12-23T18:15:54.834Z,2.44
2022-12-23T18:18:31.308Z,2.46
2022-12-23T18:21:05.443Z,2.49
2022-12-23T18:23:34.807Z,2.52
2022-12-23T18:26:03.319Z,2.56
2022-12-23T18:28:31.485Z,2.59
2022-12-23T18:30:59.691Z,2.61
2022-12-23T18:33:29.434Z,2.63
2022-12-23T18:35:58.016Z,2.64
2022-12-23T18:38:26.170Z,2.65
2022-12-23T18:40:56.692Z,2.66
2022-12-23T18:43:25.570Z,2.67
2022-12-23T18:45:54.334Z,2.68
2022-12-23T18:48:22.819Z,2.67
2022-12-23T18:50:50.985Z,2.65
2022-12-23T18:53:24.528Z,2.64
2022-12-23T18:55:54.798Z,2.63
2022-12-23T18:58:24.422Z,2.63
2022-12-23T19:00:53.194Z,2.64
2022-12-23T19:03:31.740Z,2.65
2022-12-23T19:06:06.641Z,2.64
2022-12-23T19:08:37.297Z,2.64
2022-12-23T19:11:19.014Z,2.65
2022-12-23T19:13:48.324Z,2.64
2022-12-23T19:16:19.597Z,2.64
2022-12-23T19:18:49.385Z,2.66
2022-12-23T19:21:18.303Z,2.67
2022-12-23T19:23:46.402Z,2.69
2022-12-23T19:26:15.041Z,2.70
2022-12-23T19:28:43.597Z,2.71
2022-12-23T19:31:14.938Z,2.72
2022-12-23T19:33:46.216Z,2.73
2022-12-23T19:36:24.239Z,2.75
2022-12-23T19:38:52.708Z,2.77
2022-12-23T19:41:20.828Z,2.78
2022-12-23T19:43:49.010Z,2.81
2022-12-23T19:46:17.749Z,2.81
2022-12-23T19:48:52.331Z,2.83
2022-12-23T19:51:20.692Z,2.84
2022-12-23T19:53:51.745Z,2.84
2022-12-23T19:56:21.253Z,2.85
2022-12-23T19:58:49.929Z,2.87
2022-12-23T20:01:22.439Z,2.97
2022-12-23T20:03:52.873Z,3.10
2022-12-23T20:06:34.204Z,3.18
2022-12-23T20:09:06.527Z,3.26
2022-12-23T20:11:41.961Z,3.32
2022-12-23T20:14:11.472Z,3.38
2022-12-23T20:16:40.806Z,3.43
2022-12-23T20:19:09.076Z,3.48
2022-12-23T20:21:37.736Z,3.53
2022-12-23T20:24:06.848Z,3.59
2022-12-23T20:26:35.104Z,3.65
2022-12-23T20:29:03.997Z,3.69
2022-12-23T20:31:35.655Z,3.74
2022-12-23T20:34:07.872Z,3.77
2022-12-23T20:36:36.788Z,3.78
2022-12-23T20:39:06.226Z,3.83
2022-12-23T20:41:34.523Z,3.89
2022-12-23T20:44:32.947Z,3.92
2022-12-23T20:46:50.895Z,3.94
2022-12-23T20:49:19.137Z,3.94
2022-12-23T20:51:47.246Z,3.95
2022-12-23T20:54:15.586Z,3.96
2022-12-23T20:56:43.711Z,3.97
2022-12-23T20:59:11.834Z,3.98
2022-12-23T21:01:40.982Z,4.01
2022-12-23T21:04:15.956Z,4.06
2022-12-23T21:06:44.750Z,4.10
2022-12-23T21:09:15.692Z,4.12
2022-12-23T21:11:46.924Z,4.12
2022-12-23T21:14:15.894Z,4.13
2022-12-23T21:16:45.154Z,4.11
2022-12-23T21:19:20.374Z,4.11
2022-12-23T21:21:49.925Z,4.11
2022-12-23T21:24:18.846Z,4.10
2022-12-23T21:26:55.399Z,4.10
2022-12-23T21:29:25.841Z,4.08
2022-12-23T21:31:55.190Z,4.07
2022-12-23T21:34:23.782Z,4.07
2022-12-23T21:36:51.998Z,4.08
2022-12-23T21:39:20.244Z,4.10
2022-12-23T21:41:51.048Z,4.10
2022-12-23T21:44:19.338Z,4.11
2022-12-23T21:46:51.080Z,4.12
2022-12-23T21:49:20.234Z,4.12
2022-12-23T21:51:48.499Z,4.14
2022-12-23T21:54:16.728Z,4.16
2022-12-23T21:56:44.894Z,4.16
2022-12-23T21:59:15.211Z,4.16
2022-12-23T22:01:44.019Z,4.15
2022-12-23T22:04:12.586Z,4.13
2022-12-23T22:06:44.051Z,4.11
2022-12-23T22:09:18.051Z,4.07
2022-12-23T22:11:48.259Z,4.04
2022-12-23T22:14:19.679Z,4.06
2022-12-23T22:16:47.878Z,4.08
2022-12-23T22:19:16.334Z,4.07
2022-12-23T22:21:44.572Z,4.07
2022-12-23T22:24:12.846Z,4.07
2022-12-23T22:26:41.986Z,4.07
2022-12-23T22:29:11.342Z,4.10
2022-12-23T22:31:53.391Z,4.13
2022-12-23T22:34:23.323Z,4.13
2022-12-23T22:36:51.523Z,4.09
2022-12-23T22:39:21.651Z,4.06
2022-12-23T22:41:51.398Z,4.04
2022-12-23T22:44:21.297Z,4.02
2022-12-23T22:46:50.047Z,4.01
2022-12-23T22:49:18.524Z,4.00
2022-12-23T22:51:46.761Z,3.99
2022-12-23T22:54:15.110Z,4.01
2022-12-23T22:56:46.005Z,4.01
2022-12-23T22:59:25.288Z,4.00
2022-12-23T23:01:54.323Z,4.02
2022-12-23T23:04:23.334Z,4.04
2022-12-23T23:06:51.579Z,4.04
2022-12-23T23:09:22.034Z,4.03
2022-12-23T23:11:50.633Z,4.03
2022-12-23T23:14:20.363Z,4.04
2022-12-23T23:16:48.841Z,4.03
2022-12-23T23:19:20.336Z,4.02
2022-12-23T23:21:48.958Z,4.02
2022-12-23T23:24:17.614Z,4.03
2022-12-23T23:26:45.786Z,4.01
2022-12-23T23:29:14.997Z,4.01
2022-12-23T23:31:44.210Z,3.99
2022-12-23T23:34:13.549Z,3.98
2022-12-23T23:36:41.916Z,3.95
2022-12-23T23:39:13.078Z,3.93
2022-12-23T23:41:41.742Z,3.92
2022-12-23T23:44:11.327Z,3.94
2022-12-23T23:46:40.236Z,3.94
2022-12-23T23:49:08.628Z,3.93
2022-12-23T23:51:37.258Z,3.92
2022-12-23T23:54:06.511Z,3.85
2022-12-23T23:56:38.846Z,3.80
2022-12-23T23:59:09.345Z,3.75
